Time;durP1;ratioP1;P1;durP2;ratioP2;P2;SDS_P1;SDS_P2;PMS_P1;PMS_P2;Temp;Humidity;BMP_temperature;BMP_pressure;BME280_temperature;BME280_humidity;BME280_pressure;Samples;Min_cycle;Max_cycle;Signal;HPM_P1;HPM_P2
2023/09/24 00:02:10;;;;;;;;;;;17.30;99.90;;;;;;4934094;28;19910;-77
2023/09/24 00:04:36;;;;;;;;;;;17.30;99.90;;;;;;4937295;28;20037;-76
2023/09/24 00:07:02;;;;;;;;;;;17.30;99.90;;;;;;4935771;28;19976;-76
2023/09/24 00:09:27;;;;;;;;;;;17.30;99.90;;;;;;4939656;28;20380;-75
2023/09/24 00:11:53;;;;;;;;;;;17.30;99.90;;;;;;4932633;28;19931;-76
2023/09/24 00:14:18;;;;;;;;;;;17.30;99.90;;;;;;4931548;28;20838;-76
2023/09/24 00:16:44;;;;;;;;;;;17.30;99.90;;;;;;4936581;28;20296;-77
2023/09/24 00:19:09;;;;;;;;;;;17.20;99.90;;;;;;4932987;28;20261;-75
2023/09/24 00:21:36;;;;;;;;;;;17.20;99.90;;;;;;4931402;28;19926;-68
2023/09/24 00:24:03;;;;;;;;;;;17.20;99.90;;;;;;4929584;28;19992;-68
2023/09/24 00:26:29;;;;;;;;;;;17.20;99.90;;;;;;4934269;28;19953;-67
2023/09/24 00:28:54;;;;;;;;;;;17.20;99.90;;;;;;4940225;28;20389;-67
2023/09/24 00:31:22;;;;;;;;;;;17.20;99.90;;;;;;4938855;28;19949;-67
2023/09/24 00:33:48;;;;;;;;;;;17.20;99.90;;;;;;4933898;28;19937;-67
2023/09/24 00:36:15;;;;;;;;;;;17.20;99.90;;;;;;4935518;28;20356;-67
2023/09/24 00:38:41;;;;;;;;;;;17.20;99.90;;;;;;4938027;28;19923;-67
2023/09/24 00:41:06;;;;;;;;;;;17.20;99.90;;;;;;4932647;28;20637;-67
2023/09/24 00:43:33;;;;;;;;;;;17.20;99.90;;;;;;4935645;28;19923;-68
2023/09/24 00:45:59;;;;;;;;;;;17.20;99.90;;;;;;4938643;28;19914;-67
2023/09/24 00:48:30;;;;;;;;;;;17.20;99.90;;;;;;4935533;28;19925;-66
2023/09/24 00:51:13;;;;;;;;;;;17.20;99.90;;;;;;4929094;28;19945;-68
2023/09/24 00:53:40;;;;;;;;;;;17.20;99.90;;;;;;4939221;28;19993;-67
2023/09/24 00:56:05;;;;;;;;;;;17.10;99.90;;;;;;4939479;28;19918;-67
2023/09/24 00:58:31;;;;;;;;;;;17.20;99.90;;;;;;4946797;28;19983;-77
2023/09/24 01:00:59;;;;;;;;;;;17.10;99.90;;;;;;4941982;28;20006;-77
2023/09/24 01:03:28;;;;;;;;;;;17.10;99.90;;;;;;4943114;28;19985;-75
2023/09/24 01:05:53;;;;;;;;;;;17.20;99.90;;;;;;4942707;28;20441;-75
2023/09/24 01:08:20;;;;;;;;;;;17.20;99.90;;;;;;4937185;28;20022;-73
2023/09/24 01:10:49;;;;;;;;;;;17.20;99.90;;;;;;4938983;28;19914;-75
2023/09/24 01:13:15;;;;;;;;;;;17.20;99.90;;;;;;4940263;28;19914;-75
2023/09/24 01:15:48;;;;;;;;;;;17.20;99.90;;;;;;4936858;28;19917;-66
2023/09/24 01:18:14;;;;;;;;;;;17.10;99.90;;;;;;4931987;28;19946;-66
2023/09/24 01:20:40;;;;;;;;;;;17.10;99.90;;;;;;4941650;28;20335;-67
2023/09/24 01:23:08;;;;;;;;;;;17.20;99.90;;;;;;4935204;28;19960;-66
2023/09/24 01:25:35;;;;;;;;;;;17.20;99.90;;;;;;4937492;28;20296;-67
2023/09/24 01:28:04;;;;;;;;;;;17.20;99.90;;;;;;4938578;28;20124;-67
2023/09/24 01:30:30;;;;;;;;;;;17.30;99.90;;;;;;4938109;28;19935;-66
2023/09/24 01:32:57;;;;;;;;;;;17.30;99.90;;;;;;4933274;28;19945;-66
2023/09/24 01:35:29;;;;;;;;;;;17.40;99.90;;;;;;4936836;28;20259;-67
2023/09/24 01:38:04;;;;;;;;;;;17.30;99.90;;;;;;4938244;28;19928;-66
2023/09/24 01:40:30;;;;;;;;;;;17.30;99.90;;;;;;4941422;28;19943;-67
2023/09/24 01:42:58;;;;;;;;;;;17.30;99.90;;;;;;4938627;28;19936;-67
2023/09/24 01:45:24;;;;;;;;;;;17.30;99.90;;;;;;4938692;28;19941;-67
2023/09/24 01:47:49;;;;;;;;;;;17.30;99.90;;;;;;4935144;28;19962;-66
2023/09/24 01:50:16;;;;;;;;;;;17.30;99.90;;;;;;4938313;28;20016;-67
2023/09/24 01:52:42;;;;;;;;;;;17.30;99.90;;;;;;4940532;28;19951;-67
2023/09/24 01:55:08;;;;;;;;;;;17.30;99.90;;;;;;4940421;28;19944;-67
2023/09/24 01:57:33;;;;;;;;;;;17.30;99.90;;;;;;4940308;28;19985;-67
2023/09/24 02:00:11;;;;;;;;;;;17.30;99.90;;;;;;4939225;28;19937;-66
2023/09/24 02:02:38;;;;;;;;;;;17.30;99.90;;;;;;4938925;28;20425;-66
2023/09/24 02:05:06;;;;;;;;;;;17.20;99.90;;;;;;4936945;28;20862;-67
2023/09/24 02:07:31;;;;;;;;;;;17.20;99.90;;;;;;4921830;28;20472;-66
2023/09/24 02:09:57;;;;;;;;;;;17.20;99.90;;;;;;4940492;28;19937;-66
2023/09/24 02:12:22;;;;;;;;;;;17.20;99.90;;;;;;4940813;28;19936;-67
2023/09/24 02:14:48;;;;;;;;;;;17.20;99.90;;;;;;4939305;28;20277;-66
2023/09/24 02:17:13;;;;;;;;;;;17.20;99.90;;;;;;4936970;28;19938;-66
2023/09/24 02:19:44;;;;;;;;;;;17.20;99.90;;;;;;4939308;28;19939;-66
2023/09/24 02:22:11;;;;;;;;;;;17.20;99.90;;;;;;4938382;28;20008;-66
2023/09/24 02:24:38;;;;;;;;;;;17.20;99.90;;;;;;4940116;28;19964;-66
2023/09/24 02:27:04;;;;;;;;;;;17.20;99.90;;;;;;4922579;28;19944;-66
2023/09/24 02:29:29;;;;;;;;;;;17.20;99.90;;;;;;4936576;28;19931;-66
2023/09/24 02:31:55;;;;;;;;;;;17.20;99.90;;;;;;4932229;28;19934;-66
2023/09/24 02:34:21;;;;;;;;;;;17.20;99.90;;;;;;4937723;28;20336;-66
2023/09/24 02:36:46;;;;;;;;;;;17.20;99.90;;;;;;4937075;28;19994;-67
2023/09/24 02:39:12;;;;;;;;;;;17.20;99.90;;;;;;4936848;28;20548;-66
2023/09/24 02:41:37;;;;;;;;;;;17.20;99.90;;;;;;4937535;28;19938;-66
2023/09/24 02:44:03;;;;;;;;;;;17.20;99.90;;;;;;4934474;28;20104;-67
2023/09/24 02:46:30;;;;;;;;;;;17.20;99.90;;;;;;4930401;28;19941;-66
2023/09/24 02:48:55;;;;;;;;;;;17.20;99.90;;;;;;4938554;28;19963;-74
2023/09/24 02:51:21;;;;;;;;;;;17.20;99.90;;;;;;4937609;28;20367;-73
2023/09/24 02:53:47;;;;;;;;;;;17.20;99.90;;;;;;4939568;28;20596;-74
2023/09/24 02:56:13;;;;;;;;;;;17.20;99.90;;;;;;4934258;28;19929;-74
2023/09/24 02:58:39;;;;;;;;;;;17.20;99.90;;;;;;4941290;28;19939;-75
2023/09/24 03:01:11;;;;;;;;;;;17.20;99.90;;;;;;4940154;28;19946;-75
2023/09/24 03:03:37;;;;;;;;;;;17.20;99.90;;;;;;4938562;28;20034;-74
2023/09/24 03:06:03;;;;;;;;;;;17.20;99.90;;;;;;4939240;28;19938;-75
2023/09/24 03:08:29;;;;;;;;;;;17.10;99.90;;;;;;4938661;28;19936;-74
2023/09/24 03:10:54;;;;;;;;;;;17.20;99.90;;;;;;4934968;28;19942;-74
2023/09/24 03:13:21;;;;;;;;;;;17.20;99.90;;;;;;4931088;28;19939;-74
2023/09/24 03:15:46;;;;;;;;;;;17.10;99.90;;;;;;4936298;28;20022;-74
2023/09/24 03:18:12;;;;;;;;;;;17.10;99.90;;;;;;4934604;28;19943;-74
2023/09/24 03:20:38;;;;;;;;;;;17.10;99.90;;;;;;4933607;28;19970;-74
2023/09/24 03:23:08;;;;;;;;;;;17.10;99.90;;;;;;4930611;28;19939;-74
2023/09/24 03:25:34;;;;;;;;;;;17.10;99.90;;;;;;4933737;28;20080;-73
2023/09/24 03:28:03;;;;;;;;;;;17.10;99.90;;;;;;4932814;28;20803;-73
2023/09/24 03:30:28;;;;;;;;;;;17.10;99.90;;;;;;4933877;28;20340;-73
2023/09/24 03:32:55;;;;;;;;;;;17.10;99.90;;;;;;4936057;28;19937;-73
2023/09/24 03:35:23;;;;;;;;;;;17.10;99.90;;;;;;4932172;28;19950;-73
2023/09/24 03:37:48;;;;;;;;;;;17.10;99.90;;;;;;4935366;28;19982;-73
2023/09/24 03:40:16;;;;;;;;;;;17.10;99.90;;;;;;4931877;28;20026;-73
2023/09/24 03:42:41;;;;;;;;;;;17.10;99.90;;;;;;4934441;28;19938;-72
2023/09/24 03:45:08;;;;;;;;;;;17.10;99.90;;;;;;4933376;28;20478;-72
2023/09/24 03:47:34;;;;;;;;;;;17.00;99.90;;;;;;4935410;28;20038;-72
2023/09/24 03:49:59;;;;;;;;;;;17.00;99.90;;;;;;4935806;28;19949;-73
2023/09/24 03:52:26;;;;;;;;;;;17.00;99.90;;;;;;4941918;28;19933;-73
2023/09/24 03:54:52;;;;;;;;;;;16.90;99.90;;;;;;4939979;28;20034;-72
2023/09/24 03:57:17;;;;;;;;;;;16.90;99.90;;;;;;4933920;28;19930;-72
2023/09/24 03:59:43;;;;;;;;;;;16.90;99.90;;;;;;4935599;28;19934;-72
2023/09/24 04:02:09;;;;;;;;;;;16.90;99.90;;;;;;4931678;28;19941;-66
2023/09/24 04:04:36;;;;;;;;;;;16.90;99.90;;;;;;4937480;28;19959;-65
2023/09/24 04:07:02;;;;;;;;;;;16.90;99.90;;;;;;4936327;28;20043;-65
2023/09/24 04:09:32;;;;;;;;;;;16.90;99.90;;;;;;4924409;28;19932;-65
2023/09/24 04:12:01;;;;;;;;;;;16.80;99.90;;;;;;4938482;28;19930;-65
2023/09/24 04:14:27;;;;;;;;;;;16.90;99.90;;;;;;4939514;28;19926;-65
2023/09/24 04:16:55;;;;;;;;;;;16.70;99.90;;;;;;4937550;28;19986;-66
2023/09/24 04:19:21;;;;;;;;;;;16.60;99.90;;;;;;4942101;28;19930;-65
2023/09/24 04:21:46;;;;;;;;;;;16.60;99.90;;;;;;4937575;28;20617;-65
2023/09/24 04:24:12;;;;;;;;;;;16.60;99.90;;;;;;4939779;28;20619;-66
2023/09/24 04:26:38;;;;;;;;;;;16.60;99.90;;;;;;4936583;28;20027;-65
2023/09/24 04:29:03;;;;;;;;;;;16.50;99.90;;;;;;4938597;28;20076;-65
2023/09/24 04:31:29;;;;;;;;;;;16.40;99.90;;;;;;4936064;28;19991;-65
2023/09/24 04:33:54;;;;;;;;;;;16.30;99.90;;;;;;4937065;28;19930;-65
2023/09/24 04:36:20;;;;;;;;;;;16.40;99.90;;;;;;4937902;28;20389;-65
2023/09/24 04:38:47;;;;;;;;;;;16.30;99.90;;;;;;4923652;28;19943;-65
2023/09/24 04:41:12;;;;;;;;;;;16.20;99.90;;;;;;4937297;28;20388;-65
2023/09/24 04:43:39;;;;;;;;;;;16.20;99.90;;;;;;4942651;28;19965;-65
2023/09/24 04:46:04;;;;;;;;;;;16.30;99.90;;;;;;4938816;28;19935;-65
2023/09/24 04:48:31;;;;;;;;;;;16.40;99.90;;;;;;4937012;28;19985;-65
2023/09/24 04:50:57;;;;;;;;;;;16.40;99.90;;;;;;4935862;28;19928;-65
2023/09/24 04:53:22;;;;;;;;;;;16.30;99.90;;;;;;4936447;28;19929;-65
2023/09/24 04:55:48;;;;;;;;;;;16.30;99.90;;;;;;4935944;28;19942;-65
2023/09/24 04:58:13;;;;;;;;;;;16.30;99.90;;;;;;4920673;28;19915;-65
2023/09/24 05:00:39;;;;;;;;;;;16.30;99.90;;;;;;4934793;28;20254;-65
2023/09/24 05:03:04;;;;;;;;;;;16.20;99.90;;;;;;4939470;28;19989;-65
2023/09/24 05:05:30;;;;;;;;;;;16.20;99.90;;;;;;4934890;28;20040;-64
2023/09/24 05:07:55;;;;;;;;;;;16.10;99.90;;;;;;4937024;28;19914;-65
2023/09/24 05:10:21;;;;;;;;;;;16.10;99.90;;;;;;4934074;28;19926;-65
2023/09/24 05:12:47;;;;;;;;;;;16.10;99.90;;;;;;4939874;28;19929;-65
2023/09/24 05:15:12;;;;;;;;;;;16.10;99.90;;;;;;4938766;28;19918;-72
2023/09/24 05:17:39;;;;;;;;;;;16.00;99.90;;;;;;4938929;28;19911;-72
2023/09/24 05:20:05;;;;;;;;;;;16.10;99.90;;;;;;4942428;28;20021;-72
2023/09/24 05:22:31;;;;;;;;;;;16.00;99.90;;;;;;4938874;28;19922;-72
2023/09/24 05:24:56;;;;;;;;;;;16.00;99.90;;;;;;4925111;28;19933;-72
2023/09/24 05:27:22;;;;;;;;;;;16.00;99.90;;;;;;4938577;28;19923;-72
2023/09/24 05:29:48;;;;;;;;;;;16.00;99.90;;;;;;4937428;28;19975;-70
2023/09/24 05:32:13;;;;;;;;;;;15.90;99.90;;;;;;4942331;28;20076;-73
2023/09/24 05:34:39;;;;;;;;;;;15.90;99.90;;;;;;4941319;28;20724;-72
2023/09/24 05:37:04;;;;;;;;;;;15.90;99.90;;;;;;4940465;28;19925;-72
2023/09/24 05:39:30;;;;;;;;;;;15.80;99.90;;;;;;4940680;28;19969;-72
2023/09/24 05:41:55;;;;;;;;;;;15.80;99.90;;;;;;4939068;28;19918;-72
2023/09/24 05:44:21;;;;;;;;;;;15.70;99.90;;;;;;4939615;28;20320;-73
2023/09/24 05:46:47;;;;;;;;;;;15.80;99.90;;;;;;4938930;28;19916;-72
2023/09/24 05:49:13;;;;;;;;;;;15.80;99.90;;;;;;4940793;28;20009;-72
2023/09/24 05:51:39;;;;;;;;;;;15.80;99.90;;;;;;4936602;28;19923;-73
2023/09/24 05:54:05;;;;;;;;;;;15.80;99.90;;;;;;4942097;28;19965;-73
2023/09/24 05:56:30;;;;;;;;;;;15.90;99.90;;;;;;4942552;28;20591;-73
2023/09/24 05:58:56;;;;;;;;;;;16.00;99.90;;;;;;4938953;28;19929;-73
2023/09/24 06:01:22;;;;;;;;;;;16.00;99.90;;;;;;4937739;28;20287;-74
2023/09/24 06:03:48;;;;;;;;;;;16.00;99.90;;;;;;4933849;28;19926;-72
2023/09/24 06:06:13;;;;;;;;;;;16.00;99.90;;;;;;4931210;28;19915;-72
2023/09/24 06:08:39;;;;;;;;;;;16.00;99.90;;;;;;4929496;28;21091;-73
2023/09/24 06:11:05;;;;;;;;;;;16.00;99.90;;;;;;4936801;28;21364;-72
2023/09/24 06:13:32;;;;;;;;;;;16.00;99.90;;;;;;4936524;28;20005;-72
2023/09/24 06:15:59;;;;;;;;;;;16.00;99.90;;;;;;4936853;28;20289;-71
2023/09/24 06:18:24;;;;;;;;;;;16.00;99.90;;;;;;4937998;28;20375;-71
2023/09/24 06:20:50;;;;;;;;;;;16.00;99.90;;;;;;4913610;29;19923;-71
2023/09/24 06:23:15;;;;;;;;;;;16.00;99.90;;;;;;4918387;29;19914;-72
2023/09/24 06:25:41;;;;;;;;;;;16.10;99.90;;;;;;4921882;29;19911;-72
2023/09/24 06:28:09;;;;;;;;;;;16.10;99.90;;;;;;4919858;29;20181;-74
2023/09/24 06:30:38;;;;;;;;;;;16.20;99.90;;;;;;4916006;29;19966;-73
2023/09/24 06:33:04;;;;;;;;;;;16.20;99.90;;;;;;4919726;29;19922;-72
2023/09/24 06:35:30;;;;;;;;;;;16.20;99.90;;;;;;4922945;29;19918;-74
2023/09/24 06:37:56;;;;;;;;;;;16.20;99.90;;;;;;4916346;29;20352;-74
2023/09/24 06:40:21;;;;;;;;;;;16.10;99.90;;;;;;4923085;29;20013;-75
2023/09/24 06:42:47;;;;;;;;;;;16.20;99.90;;;;;;4918561;29;19989;-75
2023/09/24 06:45:13;;;;;;;;;;;16.20;99.90;;;;;;4919707;29;19929;-77
2023/09/24 06:47:38;;;;;;;;;;;16.20;99.90;;;;;;4923860;29;20367;-76
2023/09/24 06:50:04;;;;;;;;;;;16.20;99.90;;;;;;4920628;29;23914;-76
2023/09/24 06:52:31;;;;;;;;;;;16.20;99.90;;;;;;4918005;29;19990;-76
2023/09/24 06:54:56;;;;;;;;;;;16.20;99.90;;;;;;4916633;29;20414;-77
2023/09/24 06:57:22;;;;;;;;;;;16.20;99.90;;;;;;4915652;29;19919;-75
2023/09/24 06:59:47;;;;;;;;;;;16.20;99.90;;;;;;4916915;29;20054;-74
2023/09/24 07:02:14;;;;;;;;;;;16.30;99.90;;;;;;4920655;29;19973;-74
2023/09/24 07:04:40;;;;;;;;;;;16.30;99.90;;;;;;4921246;29;19919;-74
2023/09/24 07:07:07;;;;;;;;;;;16.30;99.90;;;;;;4921092;29;19922;-75
2023/09/24 07:09:33;;;;;;;;;;;16.30;99.90;;;;;;4920660;29;19915;-74
2023/09/24 07:11:59;;;;;;;;;;;16.30;99.90;;;;;;4921884;29;20376;-74
2023/09/24 07:14:24;;;;;;;;;;;16.30;99.90;;;;;;4919209;29;19911;-74
2023/09/24 07:16:50;;;;;;;;;;;16.20;99.90;;;;;;4915537;29;20360;-73
2023/09/24 07:19:16;;;;;;;;;;;16.20;99.90;;;;;;4917034;29;19925;-74
2023/09/24 07:21:42;;;;;;;;;;;16.20;99.90;;;;;;4932195;28;19978;-76
2023/09/24 07:24:08;;;;;;;;;;;16.30;99.90;;;;;;4937671;28;20057;-75
2023/09/24 07:26:33;;;;;;;;;;;16.30;99.90;;;;;;4932505;28;19972;-67
2023/09/24 07:29:00;;;;;;;;;;;16.30;99.90;;;;;;4934345;28;20124;-67
2023/09/24 07:31:26;;;;;;;;;;;16.30;99.90;;;;;;4934690;28;19920;-67
2023/09/24 07:33:53;;;;;;;;;;;16.40;99.90;;;;;;4937692;28;19953;-66
2023/09/24 07:36:19;;;;;;;;;;;16.40;99.90;;;;;;4933683;28;19969;-67
2023/09/24 07:38:44;;;;;;;;;;;16.30;99.90;;;;;;4932479;28;19914;-66
2023/09/24 07:41:10;;;;;;;;;;;16.40;99.90;;;;;;4931444;28;20049;-66
2023/09/24 07:43:40;;;;;;;;;;;16.40;99.90;;;;;;4936659;28;20058;-66
2023/09/24 07:46:14;;;;;;;;;;;16.40;99.90;;;;;;4935087;28;19926;-66
2023/09/24 07:48:41;;;;;;;;;;;16.50;99.90;;;;;;4937304;28;20012;-66
2023/09/24 07:51:07;;;;;;;;;;;16.50;99.90;;;;;;4934543;28;20429;-66
2023/09/24 07:53:32;;;;;;;;;;;16.60;99.90;;;;;;4937663;28;19918;-66
2023/09/24 07:56:02;;;;;;;;;;;16.50;99.90;;;;;;4933777;28;19918;-66
2023/09/24 07:58:28;;;;;;;;;;;16.50;99.90;;;;;;4931969;28;19915;-71
2023/09/24 08:01:00;;;;;;;;;;;16.50;99.90;;;;;;4930948;28;20009;-66
2023/09/24 08:03:26;;;;;;;;;;;16.50;99.90;;;;;;4938753;28;20021;-75
2023/09/24 08:05:52;;;;;;;;;;;16.40;99.90;;;;;;4941233;28;20010;-74
2023/09/24 08:08:18;;;;;;;;;;;16.40;99.90;;;;;;4944829;28;19918;-76
2023/09/24 08:10:43;;;;;;;;;;;16.40;99.90;;;;;;4944818;28;19911;-72
2023/09/24 08:13:09;;;;;;;;;;;16.50;99.90;;;;;;4940892;28;19910;-73
2023/09/24 08:15:34;;;;;;;;;;;16.50;99.90;;;;;;4941549;28;19935;-75
2023/09/24 08:18:01;;;;;;;;;;;16.50;99.90;;;;;;4942476;28;19922;-75
2023/09/24 08:20:26;;;;;;;;;;;16.50;99.90;;;;;;4939879;28;19930;-76
2023/09/24 08:22:52;;;;;;;;;;;16.60;99.90;;;;;;4934664;28;19990;-72
2023/09/24 08:25:17;;;;;;;;;;;16.60;99.90;;;;;;4940864;28;20713;-74
2023/09/24 08:27:44;;;;;;;;;;;16.60;99.90;;;;;;4942322;28;19949;-73
2023/09/24 08:30:10;;;;;;;;;;;16.60;99.90;;;;;;4939290;28;19919;-78
2023/09/24 08:32:35;;;;;;;;;;;16.50;99.90;;;;;;4946551;28;19926;-75
2023/09/24 08:35:02;;;;;;;;;;;16.50;99.90;;;;;;4944448;28;19918;-75
2023/09/24 08:37:28;;;;;;;;;;;16.50;99.90;;;;;;4940140;28;20949;-73
2023/09/24 08:39:53;;;;;;;;;;;16.50;99.90;;;;;;4935346;28;20430;-67
2023/09/24 08:42:19;;;;;;;;;;;16.50;99.90;;;;;;4937373;28;19919;-67
2023/09/24 08:44:47;;;;;;;;;;;16.60;99.90;;;;;;4936479;28;20017;-67
2023/09/24 08:47:13;;;;;;;;;;;16.60;99.90;;;;;;4933196;28;20338;-68
2023/09/24 08:49:39;;;;;;;;;;;16.50;99.90;;;;;;4939833;28;20518;-67
2023/09/24 08:52:06;;;;;;;;;;;16.50;99.90;;;;;;4936721;28;19917;-67
2023/09/24 08:54:33;;;;;;;;;;;16.60;99.90;;;;;;4938435;28;19997;-67
2023/09/24 08:56:58;;;;;;;;;;;16.60;99.90;;;;;;4937177;28;19910;-67
2023/09/24 08:59:26;;;;;;;;;;;16.60;99.90;;;;;;4932572;28;19918;-67
2023/09/24 09:01:53;;;;;;;;;;;16.60;99.90;;;;;;4936032;28;19997;-67
2023/09/24 09:04:18;;;;;;;;;;;16.50;99.90;;;;;;4939892;28;19929;-67
2023/09/24 09:06:44;;;;;;;;;;;16.50;99.90;;;;;;4938549;28;19914;-67
2023/09/24 09:09:10;;;;;;;;;;;16.60;99.90;;;;;;4935838;28;19914;-67
2023/09/24 09:11:45;;;;;;;;;;;16.60;99.90;;;;;;4938088;28;20025;-68
2023/09/24 09:14:11;;;;;;;;;;;16.60;99.90;;;;;;4933402;28;19927;-67
2023/09/24 09:16:52;;;;;;;;;;;16.70;99.90;;;;;;4940776;28;19914;-67
2023/09/24 09:19:18;;;;;;;;;;;16.70;99.90;;;;;;4936755;28;19941;-66
2023/09/24 09:21:43;;;;;;;;;;;16.70;99.90;;;;;;4933748;28;19922;-67
2023/09/24 09:24:25;;;;;;;;;;;16.60;99.90;;;;;;4913602;28;19997;-67
2023/09/24 09:26:53;;;;;;;;;;;16.70;99.90;;;;;;4935491;28;19989;-67
2023/09/24 09:29:25;;;;;;;;;;;16.70;99.90;;;;;;4930805;28;20475;-67
2023/09/24 09:31:52;;;;;;;;;;;16.70;99.90;;;;;;4937017;28;20021;-68
2023/09/24 09:34:18;;;;;;;;;;;16.80;99.90;;;;;;4939192;28;19915;-77
2023/09/24 09:36:43;;;;;;;;;;;16.80;99.90;;;;;;4942132;28;20608;-76
2023/09/24 09:39:09;;;;;;;;;;;16.80;99.90;;;;;;4939586;28;19910;-74
2023/09/24 09:41:34;;;;;;;;;;;16.90;99.90;;;;;;4939400;28;20040;-76
2023/09/24 09:44:04;;;;;;;;;;;16.90;99.90;;;;;;4945584;28;19986;-77
2023/09/24 09:46:32;;;;;;;;;;;16.90;99.90;;;;;;4941545;28;19919;-76
2023/09/24 09:49:02;;;;;;;;;;;16.90;99.90;;;;;;4942473;28;20135;-77
2023/09/24 09:51:29;;;;;;;;;;;16.80;99.90;;;;;;4944240;28;19941;-76
2023/09/24 09:54:00;;;;;;;;;;;16.80;99.90;;;;;;4935711;28;19914;-67
2023/09/24 09:56:26;;;;;;;;;;;16.80;99.90;;;;;;4938021;28;19942;-68
2023/09/24 09:58:52;;;;;;;;;;;16.70;99.90;;;;;;4931032;28;19923;-67
2023/09/24 10:01:20;;;;;;;;;;;16.70;99.90;;;;;;4932703;28;21127;-67
2023/09/24 10:03:47;;;;;;;;;;;16.80;99.90;;;;;;4937889;28;19923;-67
2023/09/24 10:06:13;;;;;;;;;;;16.80;99.90;;;;;;4939922;28;19914;-67
2023/09/24 10:08:47;;;;;;;;;;;16.70;99.90;;;;;;4933833;28;20393;-75
2023/09/24 10:11:35;;;;;;;;;;;16.70;99.90;;;;;;4941937;28;19918;-67
2023/09/24 10:14:05;;;;;;;;;;;16.70;99.90;;;;;;4930965;28;19961;-67
2023/09/24 10:16:32;;;;;;;;;;;16.70;99.90;;;;;;4935227;28;19910;-68
2023/09/24 10:19:07;;;;;;;;;;;16.80;99.90;;;;;;4936845;28;20005;-66
2023/09/24 10:21:45;;;;;;;;;;;16.80;99.90;;;;;;4937236;28;20422;-66
2023/09/24 10:24:10;;;;;;;;;;;16.90;99.90;;;;;;4937121;28;19925;-67
2023/09/24 10:26:48;;;;;;;;;;;16.80;99.90;;;;;;4932019;28;19922;-66
2023/09/24 10:29:15;;;;;;;;;;;16.80;99.90;;;;;;4938489;28;19981;-78
2023/09/24 10:31:59;;;;;;;;;;;16.90;99.90;;;;;;4940787;28;19980;-77
2023/09/24 10:34:25;;;;;;;;;;;17.00;99.90;;;;;;4944108;28;20001;-76
2023/09/24 10:37:08;;;;;;;;;;;17.10;99.90;;;;;;4945327;28;20014;-75
2023/09/24 10:39:54;;;;;;;;;;;17.10;99.90;;;;;;4943548;28;19949;-82
2023/09/24 10:42:19;;;;;;;;;;;17.20;99.90;;;;;;4946498;28;20033;-76
2023/09/24 10:44:45;;;;;;;;;;;17.20;99.90;;;;;;4944051;28;19993;-78
2023/09/24 10:47:27;;;;;;;;;;;17.20;99.90;;;;;;4950635;28;19984;-78
2023/09/24 10:50:06;;;;;;;;;;;17.20;99.90;;;;;;4943692;28;20655;-75
2023/09/24 10:52:50;;;;;;;;;;;17.20;99.90;;;;;;4944978;28;20381;-79
2023/09/24 10:55:33;;;;;;;;;;;17.20;99.90;;;;;;4926941;28;20436;-78
2023/09/24 10:58:00;;;;;;;;;;;17.10;99.90;;;;;;4941822;28;19945;-78
2023/09/24 11:00:26;;;;;;;;;;;17.10;99.90;;;;;;4942662;28;20383;-78
2023/09/24 11:02:59;;;;;;;;;;;17.20;99.90;;;;;;4937847;28;19949;-76
2023/09/24 11:05:25;;;;;;;;;;;17.20;99.90;;;;;;4937070;28;19925;-67
2023/09/24 11:07:51;;;;;;;;;;;17.20;99.90;;;;;;4935257;28;19914;-67
2023/09/24 11:10:24;;;;;;;;;;;17.20;99.90;;;;;;4923311;28;20415;-67
2023/09/24 11:12:50;;;;;;;;;;;17.30;99.90;;;;;;4936182;28;19946;-67
2023/09/24 11:15:17;;;;;;;;;;;17.30;99.90;;;;;;4934776;28;19918;-67
2023/09/24 11:17:43;;;;;;;;;;;17.30;99.90;;;;;;4921562;28;19910;-67
2023/09/24 11:20:09;;;;;;;;;;;17.30;99.90;;;;;;4929379;28;21241;-68
2023/09/24 11:22:35;;;;;;;;;;;17.30;99.90;;;;;;4928942;28;19925;-68
2023/09/24 11:25:04;;;;;;;;;;;17.30;99.90;;;;;;4934968;28;19918;-68
2023/09/24 11:27:30;;;;;;;;;;;17.30;99.90;;;;;;4928114;28;19915;-67
2023/09/24 11:29:57;;;;;;;;;;;17.30;99.90;;;;;;4906723;28;19925;-67
2023/09/24 11:32:27;;;;;;;;;;;17.40;99.90;;;;;;4935390;28;19910;-67
2023/09/24 11:35:12;;;;;;;;;;;17.40;99.90;;;;;;4937603;28;19940;-68
2023/09/24 11:37:48;;;;;;;;;;;17.40;99.90;;;;;;4927729;28;19919;-67
2023/09/24 11:40:36;;;;;;;;;;;17.50;99.90;;;;;;4932109;28;19926;-68
2023/09/24 11:43:03;;;;;;;;;;;17.50;99.90;;;;;;4933281;28;19918;-67
2023/09/24 11:45:42;;;;;;;;;;;17.50;99.90;;;;;;4933292;28;20717;-66
2023/09/24 11:48:10;;;;;;;;;;;17.30;99.90;;;;;;4934003;28;20644;-68
2023/09/24 11:50:37;;;;;;;;;;;17.20;99.90;;;;;;4935492;28;20465;-67
2023/09/24 11:53:03;;;;;;;;;;;17.10;99.90;;;;;;4931771;28;19918;-67
2023/09/24 11:55:29;;;;;;;;;;;17.20;99.90;;;;;;4927037;28;19925;-67
2023/09/24 11:57:54;;;;;;;;;;;17.20;99.90;;;;;;4929326;28;20280;-68
2023/09/24 12:00:20;;;;;;;;;;;17.20;99.90;;;;;;4935782;28;19921;-68
2023/09/24 12:02:46;;;;;;;;;;;17.20;99.90;;;;;;4911073;29;20790;-67
2023/09/24 12:05:11;;;;;;;;;;;17.20;99.90;;;;;;4922883;28;19926;-69
2023/09/24 12:07:37;;;;;;;;;;;17.20;99.90;;;;;;4928794;28;19915;-69
2023/09/24 12:10:03;;;;;;;;;;;17.20;99.90;;;;;;4918394;28;19915;-68
2023/09/24 12:12:28;;;;;;;;;;;17.20;99.90;;;;;;4924711;28;20391;-68
2023/09/24 12:14:54;;;;;;;;;;;17.30;99.90;;;;;;4928922;28;19918;-66
2023/09/24 12:17:19;;;;;;;;;;;17.30;99.90;;;;;;4923668;28;19969;-66
2023/09/24 12:19:45;;;;;;;;;;;17.20;99.90;;;;;;4924821;28;19925;-66
2023/09/24 12:22:12;;;;;;;;;;;17.20;99.90;;;;;;4912021;28;20021;-66
2023/09/24 12:24:37;;;;;;;;;;;17.20;99.90;;;;;;4927398;28;19923;-66
2023/09/24 12:27:03;;;;;;;;;;;17.20;99.90;;;;;;4925706;28;19914;-66
2023/09/24 12:29:29;;;;;;;;;;;17.20;99.90;;;;;;4925211;28;20304;-66
2023/09/24 12:31:55;;;;;;;;;;;17.20;99.90;;;;;;4928367;28;19938;-66
2023/09/24 12:34:20;;;;;;;;;;;17.10;99.90;;;;;;4933175;28;19922;-67
2023/09/24 12:36:46;;;;;;;;;;;17.20;99.90;;;;;;4936729;28;19918;-77
2023/09/24 12:39:11;;;;;;;;;;;17.20;99.90;;;;;;4931427;28;19918;-77
2023/09/24 12:41:37;;;;;;;;;;;17.20;99.90;;;;;;4935507;28;19937;-77
2023/09/24 12:44:03;;;;;;;;;;;17.20;99.90;;;;;;4914548;28;20005;-77
2023/09/24 12:46:30;;;;;;;;;;;17.20;99.90;;;;;;4937354;28;19930;-76
2023/09/24 12:48:55;;;;;;;;;;;17.20;99.90;;;;;;4938188;28;19926;-77
2023/09/24 12:51:21;;;;;;;;;;;17.20;99.90;;;;;;4938470;28;19910;-77
2023/09/24 12:53:48;;;;;;;;;;;17.20;99.90;;;;;;4940038;28;19926;-77
2023/09/24 12:56:13;;;;;;;;;;;17.20;99.90;;;;;;4935005;28;20965;-67
2023/09/24 12:58:39;;;;;;;;;;;17.20;99.90;;;;;;4936130;28;19918;-67
2023/09/24 13:01:05;;;;;;;;;;;17.30;99.90;;;;;;4933963;28;19919;-69
2023/09/24 13:03:31;;;;;;;;;;;17.30;99.90;;;;;;4927565;28;20017;-67
2023/09/24 13:05:57;;;;;;;;;;;17.30;99.90;;;;;;4930072;28;19954;-69
2023/09/24 13:08:23;;;;;;;;;;;17.40;99.90;;;;;;4935214;28;20320;-67
2023/09/24 13:10:49;;;;;;;;;;;17.40;99.90;;;;;;4933831;28;20009;-67
2023/09/24 13:13:15;;;;;;;;;;;17.30;99.90;;;;;;4932308;28;19955;-67
2023/09/24 13:15:41;;;;;;;;;;;17.30;99.90;;;;;;4939004;28;19935;-67
2023/09/24 13:18:07;;;;;;;;;;;17.30;99.90;;;;;;4934935;28;19960;-67
2023/09/24 13:20:34;;;;;;;;;;;17.30;99.90;;;;;;4934589;28;19971;-67
2023/09/24 13:23:00;;;;;;;;;;;17.40;99.90;;;;;;4931514;28;19958;-67
2023/09/24 13:25:26;;;;;;;;;;;17.30;99.90;;;;;;4934155;28;20110;-67
2023/09/24 13:27:52;;;;;;;;;;;17.30;99.90;;;;;;4935157;28;19937;-67
2023/09/24 13:30:17;;;;;;;;;;;17.20;99.90;;;;;;4936193;28;19927;-67
2023/09/24 13:32:45;;;;;;;;;;;17.30;99.90;;;;;;4932752;28;20324;-67
2023/09/24 13:35:10;;;;;;;;;;;17.30;99.90;;;;;;4938810;28;20022;-67
2023/09/24 13:37:37;;;;;;;;;;;17.30;99.90;;;;;;4933206;28;20095;-67
2023/09/24 13:40:04;;;;;;;;;;;17.30;99.90;;;;;;4934444;28;20090;-67
2023/09/24 13:42:29;;;;;;;;;;;17.30;99.90;;;;;;4934989;28;19935;-68
2023/09/24 13:44:58;;;;;;;;;;;17.30;99.90;;;;;;4935000;28;19997;-67
2023/09/24 13:47:24;;;;;;;;;;;17.30;99.90;;;;;;4933170;28;19938;-66
2023/09/24 13:49:50;;;;;;;;;;;17.40;99.90;;;;;;4935230;28;19989;-67
2023/09/24 13:52:16;;;;;;;;;;;17.40;99.90;;;;;;4933633;28;21117;-66
2023/09/24 13:54:41;;;;;;;;;;;17.40;99.90;;;;;;4938085;28;20396;-67
2023/09/24 13:57:08;;;;;;;;;;;17.40;99.90;;;;;;4935383;28;20311;-67
2023/09/24 13:59:34;;;;;;;;;;;17.40;99.90;;;;;;4942168;28;19930;-67
2023/09/24 14:02:05;;;;;;;;;;;17.40;99.90;;;;;;4933294;28;20310;-67
2023/09/24 14:04:33;;;;;;;;;;;17.40;99.90;;;;;;4935580;28;19965;-67
2023/09/24 14:06:58;;;;;;;;;;;17.40;99.90;;;;;;4936271;28;19941;-67
2023/09/24 14:12:20;;;;;;;;;;;17.50;99.90;;;;;;4932459;28;20032;-67
2023/09/24 14:14:47;;;;;;;;;;;17.50;99.90;;;;;;4932474;28;20026;-67
2023/09/24 14:17:13;;;;;;;;;;;17.50;99.90;;;;;;4935242;28;20057;-67
2023/09/24 14:19:39;;;;;;;;;;;17.50;99.90;;;;;;4922363;29;19933;-67